sensor_id;sensor_type;location;lat;lon;timestamp;pressure;altitude;pressure_sealevel;temperature
49593;BMP280;35499;51.482;4.264;2023-02-28T00:02:16;103177.78;;;2.12
49593;BMP280;35499;51.482;4.264;2023-02-28T00:04:43;103180.16;;;2.09
49593;BMP280;35499;51.482;4.264;2023-02-28T00:07:08;103179.19;;;2.07
49593;BMP280;35499;51.482;4.264;2023-02-28T00:09:33;103182.50;;;2.06
49593;BMP280;35499;51.482;4.264;2023-02-28T00:11:59;103182.41;;;2.05
49593;BMP280;35499;51.482;4.264;2023-02-28T00:14:24;103183.38;;;2.07
49593;BMP280;35499;51.482;4.264;2023-02-28T00:16:49;103175.69;;;2.05
49593;BMP280;35499;51.482;4.264;2023-02-28T00:19:15;103175.69;;;2.05
49593;BMP280;35499;51.482;4.264;2023-02-28T00:21:40;103183.91;;;2.01
49593;BMP280;35499;51.482;4.264;2023-02-28T00:24:06;103179.56;;;1.99
49593;BMP280;35499;51.482;4.264;2023-02-28T00:26:32;103182.00;;;1.97
49593;BMP280;35499;51.482;4.264;2023-02-28T00:28:57;103173.41;;;1.96
49593;BMP280;35499;51.482;4.264;2023-02-28T00:31:22;103180.88;;;1.93
49593;BMP280;35499;51.482;4.264;2023-02-28T00:33:48;103177.19;;;1.88
49593;BMP280;35499;51.482;4.264;2023-02-28T00:36:13;103174.47;;;1.85
49593;BMP280;35499;51.482;4.264;2023-02-28T00:38:39;103168.38;;;1.81
49593;BMP280;35499;51.482;4.264;2023-02-28T00:41:05;103182.53;;;1.78
49593;BMP280;35499;51.482;4.264;2023-02-28T00:43:32;103177.28;;;1.75
49593;BMP280;35499;51.482;4.264;2023-02-28T00:45:58;103181.47;;;1.75
49593;BMP280;35499;51.482;4.264;2023-02-28T00:48:23;103165.44;;;1.74
49593;BMP280;35499;51.482;4.264;2023-02-28T00:50:49;103173.03;;;1.74
49593;BMP280;35499;51.482;4.264;2023-02-28T00:53:15;103166.97;;;1.72
49593;BMP280;35499;51.482;4.264;2023-02-28T00:55:40;103171.88;;;1.69
49593;BMP280;35499;51.482;4.264;2023-02-28T00:58:05;103164.97;;;1.67
49593;BMP280;35499;51.482;4.264;2023-02-28T01:00:31;103172.47;;;1.65
49593;BMP280;35499;51.482;4.264;2023-02-28T01:02:56;103170.66;;;1.63
49593;BMP280;35499;51.482;4.264;2023-02-28T01:05:21;103170.47;;;1.60
49593;BMP280;35499;51.482;4.264;2023-02-28T01:07:46;103175.47;;;1.59
49593;BMP280;35499;51.482;4.264;2023-02-28T01:10:12;103172.72;;;1.56
49593;BMP280;35499;51.482;4.264;2023-02-28T01:12:38;103175.09;;;1.53
49593;BMP280;35499;51.482;4.264;2023-02-28T01:15:04;103180.16;;;1.53
49593;BMP280;35499;51.482;4.264;2023-02-28T01:17:29;103175.88;;;1.52
49593;BMP280;35499;51.482;4.264;2023-02-28T01:19:55;103175.72;;;1.49
49593;BMP280;35499;51.482;4.264;2023-02-28T01:22:21;103188.38;;;1.49
49593;BMP280;35499;51.482;4.264;2023-02-28T01:24:46;103189.16;;;1.48
49593;BMP280;35499;51.482;4.264;2023-02-28T01:27:12;103178.25;;;1.49
49593;BMP280;35499;51.482;4.264;2023-02-28T01:29:38;103173.50;;;1.55
49593;BMP280;35499;51.482;4.264;2023-02-28T01:32:03;103174.66;;;1.60
49593;BMP280;35499;51.482;4.264;2023-02-28T01:34:29;103174.13;;;1.65
49593;BMP280;35499;51.482;4.264;2023-02-28T01:36:54;103181.31;;;1.72
49593;BMP280;35499;51.482;4.264;2023-02-28T01:39:19;103179.22;;;1.79
49593;BMP280;35499;51.482;4.264;2023-02-28T01:41:45;103176.22;;;1.86
49593;BMP280;35499;51.482;4.264;2023-02-28T01:47:13;103175.53;;;2.02
49593;BMP280;35499;51.482;4.264;2023-02-28T01:49:39;103172.47;;;2.08
49593;BMP280;35499;51.482;4.264;2023-02-28T01:52:04;103166.06;;;2.14
49593;BMP280;35499;51.482;4.264;2023-02-28T01:54:31;103164.66;;;2.19
49593;BMP280;35499;51.482;4.264;2023-02-28T01:57:04;103160.78;;;2.25
49593;BMP280;35499;51.482;4.264;2023-02-28T01:59:38;103159.38;;;2.30
49593;BMP280;35499;51.482;4.264;2023-02-28T02:02:11;103171.50;;;2.35
49593;BMP280;35499;51.482;4.264;2023-02-28T02:04:41;103165.75;;;2.38
49593;BMP280;35499;51.482;4.264;2023-02-28T02:07:08;103163.34;;;2.41
49593;BMP280;35499;51.482;4.264;2023-02-28T02:09:34;103154.19;;;2.43
49593;BMP280;35499;51.482;4.264;2023-02-28T02:12:02;103168.69;;;2.45
49593;BMP280;35499;51.482;4.264;2023-02-28T02:15:00;103166.31;;;2.48
49593;BMP280;35499;51.482;4.264;2023-02-28T02:17:45;103166.47;;;2.51
49593;BMP280;35499;51.482;4.264;2023-02-28T02:21:04;103163.16;;;2.52
49593;BMP280;35499;51.482;4.264;2023-02-28T02:26:10;103160.00;;;2.56
49593;BMP280;35499;51.482;4.264;2023-02-28T02:29:03;103165.16;;;2.57
49593;BMP280;35499;51.482;4.264;2023-02-28T02:37:24;103157.69;;;2.60
49593;BMP280;35499;51.482;4.264;2023-02-28T02:40:16;103156.13;;;2.62
49593;BMP280;35499;51.482;4.264;2023-02-28T02:43:02;103148.75;;;2.67
49593;BMP280;35499;51.482;4.264;2023-02-28T02:45:59;103147.97;;;2.67
49593;BMP280;35499;51.482;4.264;2023-02-28T02:48:29;103146.38;;;2.69
49593;BMP280;35499;51.482;4.264;2023-02-28T02:50:59;103144.78;;;2.71
49593;BMP280;35499;51.482;4.264;2023-02-28T02:53:30;103149.09;;;2.72
49593;BMP280;35499;51.482;4.264;2023-02-28T02:55:58;103144.16;;;2.75
49593;BMP280;35499;51.482;4.264;2023-02-28T02:58:29;103149.22;;;2.75
49593;BMP280;35499;51.482;4.264;2023-02-28T03:00:58;103147.66;;;2.77
49593;BMP280;35499;51.482;4.264;2023-02-28T03:03:24;103148.53;;;2.78
49593;BMP280;35499;51.482;4.264;2023-02-28T03:05:58;103150.34;;;2.80
49593;BMP280;35499;51.482;4.264;2023-02-28T03:08:24;103158.13;;;2.83
49593;BMP280;35499;51.482;4.264;2023-02-28T03:10:52;103149.69;;;2.84
49593;BMP280;35499;51.482;4.264;2023-02-28T03:13:45;103148.13;;;2.86
49593;BMP280;35499;51.482;4.264;2023-02-28T03:22:10;103147.44;;;2.88
49593;BMP280;35499;51.482;4.264;2023-02-28T03:27:24;103141.63;;;2.91
49593;BMP280;35499;51.482;4.264;2023-02-28T03:30:05;103148.44;;;2.92
49593;BMP280;35499;51.482;4.264;2023-02-28T03:33:08;103152.75;;;2.93
49593;BMP280;35499;51.482;4.264;2023-02-28T03:35:39;103152.78;;;2.94
49593;BMP280;35499;51.482;4.264;2023-02-28T03:38:19;103144.41;;;2.95
49593;BMP280;35499;51.482;4.264;2023-02-28T03:41:03;103150.34;;;2.96
49593;BMP280;35499;51.482;4.264;2023-02-28T03:43:34;103149.56;;;2.97
49593;BMP280;35499;51.482;4.264;2023-02-28T03:46:05;103150.53;;;2.99
49593;BMP280;35499;51.482;4.264;2023-02-28T03:48:40;103151.47;;;3.01
49593;BMP280;35499;51.482;4.264;2023-02-28T03:51:10;103150.66;;;3.02
49593;BMP280;35499;51.482;4.264;2023-02-28T03:53:59;103147.34;;;3.03
49593;BMP280;35499;51.482;4.264;2023-02-28T03:56:33;103159.25;;;3.03
49593;BMP280;35499;51.482;4.264;2023-02-28T03:59:12;103164.38;;;3.05
49593;BMP280;35499;51.482;4.264;2023-02-28T04:01:47;103155.09;;;3.05
49593;BMP280;35499;51.482;4.264;2023-02-28T04:04:14;103151.00;;;3.07
49593;BMP280;35499;51.482;4.264;2023-02-28T04:06:40;103149.25;;;3.06
49593;BMP280;35499;51.482;4.264;2023-02-28T04:09:07;103151.00;;;3.07
49593;BMP280;35499;51.482;4.264;2023-02-28T04:11:53;103147.66;;;3.08
49593;BMP280;35499;51.482;4.264;2023-02-28T04:14:18;103146.06;;;3.10
49593;BMP280;35499;51.482;4.264;2023-02-28T04:16:45;103147.81;;;3.11
49593;BMP280;35499;51.482;4.264;2023-02-28T04:19:12;103151.13;;;3.10
49593;BMP280;35499;51.482;4.264;2023-02-28T04:21:43;103146.06;;;3.10
49593;BMP280;35499;51.482;4.264;2023-02-28T04:24:11;103143.44;;;3.09
49593;BMP280;35499;51.482;4.264;2023-02-28T04:26:41;103157.00;;;3.09
49593;BMP280;35499;51.482;4.264;2023-02-28T04:29:08;103165.50;;;3.10
49593;BMP280;35499;51.482;4.264;2023-02-28T04:31:34;103162.16;;;3.11
49593;BMP280;35499;51.482;4.264;2023-02-28T04:34:00;103158.06;;;3.13
49593;BMP280;35499;51.482;4.264;2023-02-28T04:36:25;103144.56;;;3.14
49593;BMP280;35499;51.482;4.264;2023-02-28T04:38:51;103150.66;;;3.17
49593;BMP280;35499;51.482;4.264;2023-02-28T04:41:16;103155.84;;;3.19
49593;BMP280;35499;51.482;4.264;2023-02-28T04:43:42;103155.09;;;3.21
49593;BMP280;35499;51.482;4.264;2023-02-28T04:46:08;103154.41;;;3.23
49593;BMP280;35499;51.482;4.264;2023-02-28T04:48:36;103161.19;;;3.24
49593;BMP280;35499;51.482;4.264;2023-02-28T04:51:08;103172.31;;;3.26
49593;BMP280;35499;51.482;4.264;2023-02-28T04:53:34;103162.25;;;3.28
49593;BMP280;35499;51.482;4.264;2023-02-28T04:56:00;103160.56;;;3.28
49593;BMP280;35499;51.482;4.264;2023-02-28T04:58:26;103156.34;;;3.29
49593;BMP280;35499;51.482;4.264;2023-02-28T05:00:52;103157.31;;;3.31
49593;BMP280;35499;51.482;4.264;2023-02-28T05:03:18;103161.59;;;3.32
49593;BMP280;35499;51.482;4.264;2023-02-28T05:05:43;103162.47;;;3.32
49593;BMP280;35499;51.482;4.264;2023-02-28T05:08:08;103165.00;;;3.32
49593;BMP280;35499;51.482;4.264;2023-02-28T05:10:35;103170.97;;;3.33
49593;BMP280;35499;51.482;4.264;2023-02-28T05:13:00;103169.22;;;3.32
49593;BMP280;35499;51.482;4.264;2023-02-28T05:15:26;103172.63;;;3.32
49593;BMP280;35499;51.482;4.264;2023-02-28T05:17:51;103173.41;;;3.31
49593;BMP280;35499;51.482;4.264;2023-02-28T05:20:16;103180.25;;;3.32
49593;BMP280;35499;51.482;4.264;2023-02-28T05:22:42;103184.44;;;3.32
49593;BMP280;35499;51.482;4.264;2023-02-28T05:25:12;103181.13;;;3.33
49593;BMP280;35499;51.482;4.264;2023-02-28T05:27:38;103175.16;;;3.32
49593;BMP280;35499;51.482;4.264;2023-02-28T05:30:05;103186.19;;;3.33
49593;BMP280;35499;51.482;4.264;2023-02-28T05:32:31;103182.00;;;3.33
49593;BMP280;35499;51.482;4.264;2023-02-28T05:34:56;103193.03;;;3.34
49593;BMP280;35499;51.482;4.264;2023-02-28T05:37:21;103187.09;;;3.33
49593;BMP280;35499;51.482;4.264;2023-02-28T05:39:47;103187.97;;;3.34
49593;BMP280;35499;51.482;4.264;2023-02-28T05:42:14;103198.13;;;3.34
49593;BMP280;35499;51.482;4.264;2023-02-28T05:44:39;103203.19;;;3.34
49593;BMP280;35499;51.482;4.264;2023-02-28T05:47:04;103199.78;;;3.33
49593;BMP280;35499;51.482;4.264;2023-02-28T05:49:30;103200.56;;;3.32
49593;BMP280;35499;51.482;4.264;2023-02-28T05:51:55;103203.00;;;3.31
49593;BMP280;35499;51.482;4.264;2023-02-28T05:54:20;103198.72;;;3.30
49593;BMP280;35499;51.482;4.264;2023-02-28T05:56:45;103203.56;;;3.25
49593;BMP280;35499;51.482;4.264;2023-02-28T05:59:12;103209.19;;;3.20
49593;BMP280;35499;51.482;4.264;2023-02-28T06:04:05;103208.81;;;3.13
49593;BMP280;35499;51.482;4.264;2023-02-28T06:06:31;103206.97;;;3.10
49593;BMP280;35499;51.482;4.264;2023-02-28T06:08:56;103213.66;;;3.08
49593;BMP280;35499;51.482;4.264;2023-02-28T06:11:22;103211.91;;;3.07
49593;BMP280;35499;51.482;4.264;2023-02-28T06:13:54;103211.72;;;3.04
49593;BMP280;35499;51.482;4.264;2023-02-28T06:16:20;103209.84;;;3.01
49593;BMP280;35499;51.482;4.264;2023-02-28T06:18:46;103211.25;;;2.96
49593;BMP280;35499;51.482;4.264;2023-02-28T06:21:12;103219.59;;;2.93
49593;BMP280;35499;51.482;4.264;2023-02-28T06:23:37;103214.25;;;2.89
49593;BMP280;35499;51.482;4.264;2023-02-28T06:26:02;103209.03;;;2.86
49593;BMP280;35499;51.482;4.264;2023-02-28T06:28:28;103219.09;;;2.85
49593;BMP280;35499;51.482;4.264;2023-02-28T06:30:53;103211.41;;;2.83
49593;BMP280;35499;51.482;4.264;2023-02-28T06:33:18;103214.66;;;2.81
49593;BMP280;35499;51.482;4.264;2023-02-28T06:35:46;103205.22;;;2.78
49593;BMP280;35499;51.482;4.264;2023-02-28T06:38:11;103217.09;;;2.79
49593;BMP280;35499;51.482;4.264;2023-02-28T06:40:37;103212.03;;;2.79
49593;BMP280;35499;51.482;4.264;2023-02-28T06:43:02;103217.81;;;2.77
49593;BMP280;35499;51.482;4.264;2023-02-28T06:45:28;103213.63;;;2.77
49593;BMP280;35499;51.482;4.264;2023-02-28T06:47:53;103215.38;;;2.78
49593;BMP280;35499;51.482;4.264;2023-02-28T06:50:18;103211.22;;;2.80
49593;BMP280;35499;51.482;4.264;2023-02-28T06:52:45;103213.88;;;2.82
49593;BMP280;35499;51.482;4.264;2023-02-28T06:55:10;103213.97;;;2.83
49593;BMP280;35499;51.482;4.264;2023-02-28T06:57:36;103206.34;;;2.83
49593;BMP280;35499;51.482;4.264;2023-02-28T07:00:05;103208.16;;;2.85
49593;BMP280;35499;51.482;4.264;2023-02-28T07:02:32;103198.09;;;2.87
49593;BMP280;35499;51.482;4.264;2023-02-28T07:04:58;103204.09;;;2.89
49593;BMP280;35499;51.482;4.264;2023-02-28T07:07:23;103200.78;;;2.90
49593;BMP280;35499;51.482;4.264;2023-02-28T07:09:48;103200.97;;;2.93
49593;BMP280;35499;51.482;4.264;2023-02-28T07:12:14;103200.97;;;2.93
49593;BMP280;35499;51.482;4.264;2023-02-28T07:14:39;103200.97;;;2.93
49593;BMP280;35499;51.482;4.264;2023-02-28T07:17:07;103201.09;;;2.96
49593;BMP280;35499;51.482;4.264;2023-02-28T07:19:32;103208.91;;;2.99
49593;BMP280;35499;51.482;4.264;2023-02-28T07:21:57;103210.72;;;3.01
49593;BMP280;35499;51.482;4.264;2023-02-28T07:24:23;103204.84;;;3.02
49593;BMP280;35499;51.482;4.264;2023-02-28T07:26:50;103206.66;;;3.04
49593;BMP280;35499;51.482;4.264;2023-02-28T07:29:16;103210.25;;;3.08
49593;BMP280;35499;51.482;4.264;2023-02-28T07:31:41;103214.50;;;3.09
49593;BMP280;35499;51.482;4.264;2023-02-28T07:34:06;103207.84;;;3.11
49593;BMP280;35499;51.482;4.264;2023-02-28T07:36:32;103211.28;;;3.11
49593;BMP280;35499;51.482;4.264;2023-02-28T07:38:57;103212.25;;;3.13
49593;BMP280;35499;51.482;4.264;2023-02-28T07:41:23;103211.41;;;3.14
49593;BMP280;35499;51.482;4.264;2023-02-28T07:43:49;103215.81;;;3.17
49593;BMP280;35499;51.482;4.264;2023-02-28T07:46:16;103216.66;;;3.17
49593;BMP280;35499;51.482;4.264;2023-02-28T07:48:42;103216.75;;;3.19
49593;BMP280;35499;51.482;4.264;2023-02-28T07:51:07;103208.50;;;3.22
49593;BMP280;35499;51.482;4.264;2023-02-28T07:53:33;103204.34;;;3.24
49593;BMP280;35499;51.482;4.264;2023-02-28T07:55:59;103207.13;;;3.29
49593;BMP280;35499;51.482;4.264;2023-02-28T07:58:26;103205.72;;;3.34
49593;BMP280;35499;51.482;4.264;2023-02-28T08:00:52;103219.44;;;3.37
49593;BMP280;35499;51.482;4.264;2023-02-28T08:03:19;103211.09;;;3.39
49593;BMP280;35499;51.482;4.264;2023-02-28T08:05:45;103213.03;;;3.43
49593;BMP280;35499;51.482;4.264;2023-02-28T08:08:10;103191.25;;;3.48
49593;BMP280;35499;51.482;4.264;2023-02-28T08:10:36;103199.91;;;3.52
49593;BMP280;35499;51.482;4.264;2023-02-28T08:13:02;103200.13;;;3.56
49593;BMP280;35499;51.482;4.264;2023-02-28T08:15:27;103198.59;;;3.59
49593;BMP280;35499;51.482;4.264;2023-02-28T08:17:52;103202.97;;;3.62
49593;BMP280;35499;51.482;4.264;2023-02-28T08:20:18;103207.31;;;3.64
49593;BMP280;35499;51.482;4.264;2023-02-28T08:22:43;103206.63;;;3.67
49593;BMP280;35499;51.482;4.264;2023-02-28T08:25:09;103208.38;;;3.68
49593;BMP280;35499;51.482;4.264;2023-02-28T08:27:35;103216.69;;;3.65
49593;BMP280;35499;51.482;4.264;2023-02-28T08:30:00;103207.28;;;3.63
49593;BMP280;35499;51.482;4.264;2023-02-28T08:32:26;103214.06;;;3.64
49593;BMP280;35499;51.482;4.264;2023-02-28T08:34:51;103204.00;;;3.65
49593;BMP280;35499;51.482;4.264;2023-02-28T08:37:17;103189.72;;;3.67
49593;BMP280;35499;51.482;4.264;2023-02-28T08:39:42;103201.69;;;3.70
49593;BMP280;35499;51.482;4.264;2023-02-28T08:42:07;103210.41;;;3.74
49593;BMP280;35499;51.482;4.264;2023-02-28T08:44:32;103218.25;;;3.79
49593;BMP280;35499;51.482;4.264;2023-02-28T08:46:58;103207.38;;;3.81
49593;BMP280;35499;51.482;4.264;2023-02-28T08:49:23;103221.06;;;3.83
49593;BMP280;35499;51.482;4.264;2023-02-28T08:51:48;103214.34;;;3.85
49593;BMP280;35499;51.482;4.264;2023-02-28T08:54:14;103216.03;;;3.85
49593;BMP280;35499;51.482;4.264;2023-02-28T08:56:45;103200.94;;;3.88
49593;BMP280;35499;51.482;4.264;2023-02-28T08:59:11;103202.91;;;3.93
49593;BMP280;35499;51.482;4.264;2023-02-28T09:01:36;103218.53;;;4.00
49593;BMP280;35499;51.482;4.264;2023-02-28T09:04:02;103224.78;;;4.07
49593;BMP280;35499;51.482;4.264;2023-02-28T09:06:27;103213.00;;;4.09
49593;BMP280;35499;51.482;4.264;2023-02-28T09:08:56;103219.03;;;4.10
49593;BMP280;35499;51.482;4.264;2023-02-28T09:11:23;103213.97;;;4.10
49593;BMP280;35499;51.482;4.264;2023-02-28T09:13:48;103199.72;;;4.14
49593;BMP280;35499;51.482;4.264;2023-02-28T09:16:15;103192.31;;;4.18
49593;BMP280;35499;51.482;4.264;2023-02-28T09:18:41;103198.75;;;4.29
49593;BMP280;35499;51.482;4.264;2023-02-28T09:21:09;103208.44;;;4.36
49593;BMP280;35499;51.482;4.264;2023-02-28T09:23:35;103211.28;;;4.42
49593;BMP280;35499;51.482;4.264;2023-02-28T09:26:03;103216.28;;;4.40
49593;BMP280;35499;51.482;4.264;2023-02-28T09:28:28;103206.84;;;4.38
49593;BMP280;35499;51.482;4.264;2023-02-28T09:30:54;103211.19;;;4.40
49593;BMP280;35499;51.482;4.264;2023-02-28T09:33:20;103207.19;;;4.45
49593;BMP280;35499;51.482;4.264;2023-02-28T09:35:50;103215.00;;;4.48
49593;BMP280;35499;51.482;4.264;2023-02-28T09:38:17;103224.34;;;4.49
49593;BMP280;35499;51.482;4.264;2023-02-28T09:40:49;103225.97;;;4.47
49593;BMP280;35499;51.482;4.264;2023-02-28T09:43:16;103210.63;;;4.46
49593;BMP280;35499;51.482;4.264;2023-02-28T09:45:47;103212.50;;;4.49
49593;BMP280;35499;51.482;4.264;2023-02-28T09:48:20;103218.66;;;4.54
49593;BMP280;35499;51.482;4.264;2023-02-28T09:50:50;103216.59;;;4.63
49593;BMP280;35499;51.482;4.264;2023-02-28T09:53:27;103210.81;;;4.67
49593;BMP280;35499;51.482;4.264;2023-02-28T09:56:02;103206.81;;;4.72
49593;BMP280;35499;51.482;4.264;2023-02-28T09:58:44;103206.22;;;4.77
49593;BMP280;35499;51.482;4.264;2023-02-28T10:04:52;103201.56;;;4.69
49593;BMP280;35499;51.482;4.264;2023-02-28T10:10:46;103193.81;;;4.84
49593;BMP280;35499;51.482;4.264;2023-02-28T10:13:33;103196.78;;;4.93
49593;BMP280;35499;51.482;4.264;2023-02-28T10:16:46;103202.31;;;5.02
49593;BMP280;35499;51.482;4.264;2023-02-28T10:19:14;103194.31;;;5.13
49593;BMP280;35499;51.482;4.264;2023-02-28T10:21:47;103194.53;;;5.36
49593;BMP280;35499;51.482;4.264;2023-02-28T10:24:28;103194.69;;;5.59
49593;BMP280;35499;51.482;4.264;2023-02-28T10:27:00;103184.13;;;6.08
49593;BMP280;35499;51.482;4.264;2023-02-28T10:29:27;103177.75;;;6.82
49593;BMP280;35499;51.482;4.264;2023-02-28T10:31:53;103164.41;;;7.59
49593;BMP280;35499;51.482;4.264;2023-02-28T10:34:18;103152.16;;;8.49
49593;BMP280;35499;51.482;4.264;2023-02-28T10:36:44;103140.50;;;9.16
49593;BMP280;35499;51.482;4.264;2023-02-28T10:39:45;103130.78;;;9.98
49593;BMP280;35499;51.482;4.264;2023-02-28T10:42:26;103138.41;;;10.31
49593;BMP280;35499;51.482;4.264;2023-02-28T10:45:06;103136.31;;;10.50
49593;BMP280;35499;51.482;4.264;2023-02-28T10:47:33;103135.78;;;10.64
49593;BMP280;35499;51.482;4.264;2023-02-28T10:49:59;103136.09;;;10.79
49593;BMP280;35499;51.482;4.264;2023-02-28T10:52:39;103125.38;;;11.39
49593;BMP280;35499;51.482;4.264;2023-02-28T10:55:19;103131.06;;;11.25
49593;BMP280;35499;51.482;4.264;2023-02-28T10:57:46;103119.53;;;11.47
49593;BMP280;35499;51.482;4.264;2023-02-28T11:00:19;103107.78;;;12.13
49593;BMP280;35499;51.482;4.264;2023-02-28T11:02:44;103101.34;;;12.40
49593;BMP280;35499;51.482;4.264;2023-02-28T11:05:43;103090.97;;;12.37
49593;BMP280;35499;51.482;4.264;2023-02-28T11:08:14;103095.16;;;12.29
49593;BMP280;35499;51.482;4.264;2023-02-28T11:10:53;103090.00;;;12.31
49593;BMP280;35499;51.482;4.264;2023-02-28T11:13:21;103082.13;;;12.81
49593;BMP280;35499;51.482;4.264;2023-02-28T11:15:59;103076.97;;;12.80
49593;BMP280;35499;51.482;4.264;2023-02-28T11:18:48;103086.69;;;13.00
49593;BMP280;35499;51.482;4.264;2023-02-28T11:21:27;103090.09;;;12.99
49593;BMP280;35499;51.482;4.264;2023-02-28T11:24:00;103074.94;;;13.26
49593;BMP280;35499;51.482;4.264;2023-02-28T11:26:44;103074.09;;;13.29
49593;BMP280;35499;51.482;4.264;2023-02-28T11:29:26;103075.16;;;13.51
49593;BMP280;35499;51.482;4.264;2023-02-28T11:34:29;103075.25;;;13.60
49593;BMP280;35499;51.482;4.264;2023-02-28T11:36:58;103077.94;;;13.72
49593;BMP280;35499;51.482;4.264;2023-02-28T11:39:25;103070.06;;;13.60
49593;BMP280;35499;51.482;4.264;2023-02-28T11:46:52;103071.38;;;14.10
49593;BMP280;35499;51.482;4.264;2023-02-28T11:52:19;103068.91;;;14.26
49593;BMP280;35499;51.482;4.264;2023-02-28T11:55:00;103070.44;;;13.98
49593;BMP280;35499;51.482;4.264;2023-02-28T12:03:38;103062.75;;;14.07
49593;BMP280;35499;51.482;4.264;2023-02-28T12:06:20;103061.03;;;14.10
49593;BMP280;35499;51.482;4.264;2023-02-28T12:17:21;103051.84;;;13.42
49593;BMP280;35499;51.482;4.264;2023-02-28T12:22:37;103039.78;;;13.39
49593;BMP280;35499;51.482;4.264;2023-02-28T12:27:36;103031.41;;;13.67
49593;BMP280;35499;51.482;4.264;2023-02-28T12:30:27;103026.19;;;13.59
49593;BMP280;35499;51.482;4.264;2023-02-28T12:32:57;103017.69;;;13.73
49593;BMP280;35499;51.482;4.264;2023-02-28T12:35:37;103009.78;;;13.55
49593;BMP280;35499;51.482;4.264;2023-02-28T12:38:10;103009.22;;;13.88
49593;BMP280;35499;51.482;4.264;2023-02-28T12:41:01;103010.72;;;13.61
49593;BMP280;35499;51.482;4.264;2023-02-28T12:43:33;103008.28;;;12.85
49593;BMP280;35499;51.482;4.264;2023-02-28T12:46:02;103017.06;;;12.36
49593;BMP280;35499;51.482;4.264;2023-02-28T12:48:37;103017.63;;;12.13
49593;BMP280;35499;51.482;4.264;2023-02-28T12:51:06;103013.69;;;12.41
49593;BMP280;35499;51.482;4.264;2023-02-28T12:59:25;103015.25;;;12.31
49593;BMP280;35499;51.482;4.264;2023-02-28T13:02:18;103004.03;;;12.26
49593;BMP280;35499;51.482;4.264;2023-02-28T13:04:57;103005.66;;;12.18
49593;BMP280;35499;51.482;4.264;2023-02-28T13:07:36;102994.50;;;12.20
49593;BMP280;35499;51.482;4.264;2023-02-28T13:10:07;102997.94;;;12.18
49593;BMP280;35499;51.482;4.264;2023-02-28T13:12:35;102995.28;;;12.12
49593;BMP280;35499;51.482;4.264;2023-02-28T13:17:37;102990.41;;;12.35
49593;BMP280;35499;51.482;4.264;2023-02-28T13:20:04;102988.69;;;12.33
49593;BMP280;35499;51.482;4.264;2023-02-28T13:22:46;102980.00;;;12.25
49593;BMP280;35499;51.482;4.264;2023-02-28T13:28:00;102985.84;;;11.55
49593;BMP280;35499;51.482;4.264;2023-02-28T13:33:33;102975.69;;;11.66
49593;BMP280;35499;51.482;4.264;2023-02-28T13:36:10;102977.84;;;11.39
49593;BMP280;35499;51.482;4.264;2023-02-28T13:38:52;102977.91;;;11.43
49593;BMP280;35499;51.482;4.264;2023-02-28T13:49:29;102962.91;;;11.71
49593;BMP280;35499;51.482;4.264;2023-02-28T14:03:00;102978.84;;;11.00
49593;BMP280;35499;51.482;4.264;2023-02-28T14:05:30;102975.00;;;10.78
49593;BMP280;35499;51.482;4.264;2023-02-28T14:07:59;102975.00;;;10.78
49593;BMP280;35499;51.482;4.264;2023-02-28T14:10:31;102973.94;;;10.69
49593;BMP280;35499;51.482;4.264;2023-02-28T14:13:03;102973.84;;;10.63
49593;BMP280;35499;51.482;4.264;2023-02-28T14:16:00;102978.38;;;10.77
49593;BMP280;35499;51.482;4.264;2023-02-28T14:18:32;102973.59;;;10.50
49593;BMP280;35499;51.482;4.264;2023-02-28T14:29:53;102986.22;;;10.02
49593;BMP280;35499;51.482;4.264;2023-02-28T14:32:33;102973.09;;;9.89
49593;BMP280;35499;51.482;4.264;2023-02-28T14:35:27;102976.84;;;10.02
49593;BMP280;35499;51.482;4.264;2023-02-28T14:37:54;102976.13;;;10.09
49593;BMP280;35499;51.482;4.264;2023-02-28T14:40:40;102981.72;;;9.92
49593;BMP280;35499;51.482;4.264;2023-02-28T14:43:19;102972.97;;;9.48
49593;BMP280;35499;51.482;4.264;2023-02-28T14:45:49;102978.66;;;9.36
49593;BMP280;35499;51.482;4.264;2023-02-28T14:48:17;102978.50;;;9.30
49593;BMP280;35499;51.482;4.264;2023-02-28T14:50:47;102980.53;;;9.10
49593;BMP280;35499;51.482;4.264;2023-02-28T14:53:17;102974.75;;;9.16
49593;BMP280;35499;51.482;4.264;2023-02-28T14:55:48;102973.28;;;9.27
49593;BMP280;35499;51.482;4.264;2023-02-28T14:58:52;102972.50;;;9.29
49593;BMP280;35499;51.482;4.264;2023-02-28T15:01:20;102968.84;;;9.20
49593;BMP280;35499;51.482;4.264;2023-02-28T15:03:47;102971.91;;;9.08
49593;BMP280;35499;51.482;4.264;2023-02-28T15:06:15;102965.75;;;9.00
49593;BMP280;35499;51.482;4.264;2023-02-28T15:08:43;102980.63;;;8.82
49593;BMP280;35499;51.482;4.264;2023-02-28T15:11:17;102970.16;;;8.43
49593;BMP280;35499;51.482;4.264;2023-02-28T15:13:53;102971.47;;;8.03
49593;BMP280;35499;51.482;4.264;2023-02-28T15:16:24;102976.94;;;7.87
49593;BMP280;35499;51.482;4.264;2023-02-28T15:18:57;102972.00;;;7.66
49593;BMP280;35499;51.482;4.264;2023-02-28T15:21:28;102966.72;;;7.60
49593;BMP280;35499;51.482;4.264;2023-02-28T15:24:00;102982.13;;;7.63
49593;BMP280;35499;51.482;4.264;2023-02-28T15:26:39;102974.50;;;7.64
49593;BMP280;35499;51.482;4.264;2023-02-28T15:29:17;102978.28;;;7.49
49593;BMP280;35499;51.482;4.264;2023-02-28T15:31:48;102975.16;;;7.32
49593;BMP280;35499;51.482;4.264;2023-02-28T15:34:20;102976.78;;;7.30
49593;BMP280;35499;51.482;4.264;2023-02-28T15:36:46;102978.31;;;7.25
49593;BMP280;35499;51.482;4.264;2023-02-28T15:39:24;102973.13;;;7.22
49593;BMP280;35499;51.482;4.264;2023-02-28T15:41:50;102978.75;;;7.12
49593;BMP280;35499;51.482;4.264;2023-02-28T15:44:17;102985.28;;;7.04
49593;BMP280;35499;51.482;4.264;2023-02-28T15:46:45;102980.75;;;6.96
49593;BMP280;35499;51.482;4.264;2023-02-28T15:49:20;102989.94;;;6.91
49593;BMP280;35499;51.482;4.264;2023-02-28T15:51:49;102983.75;;;6.85
49593;BMP280;35499;51.482;4.264;2023-02-28T15:54:23;102987.91;;;6.83
49593;BMP280;35499;51.482;4.264;2023-02-28T15:56:55;102987.84;;;6.80
49593;BMP280;35499;51.482;4.264;2023-02-28T15:59:23;102990.31;;;6.78
49593;BMP280;35499;51.482;4.264;2023-02-28T16:04:34;102992.66;;;6.73
49593;BMP280;35499;51.482;4.264;2023-02-28T16:07:05;102989.84;;;6.65
49593;BMP280;35499;51.482;4.264;2023-02-28T16:09:31;102989.69;;;6.61